Time;durP1;ratioP1;P1;durP2;ratioP2;P2;SDS_P1;SDS_P2;PMS_P1;PMS_P2;Temp;Humidity;BMP_temperature;BMP_pressure;BME280_temperature;BME280_humidity;BME280_pressure;Samples;Min_cycle;Max_cycle;Signal;HPM_P1;HPM_P2
2022/06/26 00:01:21;;;;;;;;;5.00;2.00;;;;;18.10;62.27;100859.22;5035194;28;45384;-69
2022/06/26 00:03:46;;;;;;;;;2.00;2.00;;;;;18.03;62.25;100862.88;5016899;28;45404;-69
2022/06/26 00:06:11;;;;;;;;;1.67;1.67;;;;;17.94;62.41;100860.28;5016501;28;45582;-69
2022/06/26 00:08:37;;;;;;;;;3.00;2.00;;;;;18.01;62.38;100864.91;5016307;28;45459;-69
2022/06/26 00:11:03;;;;;;;;;4.67;2.33;;;;;18.08;62.45;100876.59;5031932;28;45391;-72
2022/06/26 00:13:28;;;;;;;;;3.00;2.00;;;;;18.06;62.40;100875.94;5016977;28;45360;-72
2022/06/26 00:15:53;;;;;;;;;2.67;2.00;;;;;17.97;62.41;100869.81;5016334;28;45409;-68
2022/06/26 00:18:19;;;;;;;;;3.00;1.00;;;;;17.92;62.65;100867.72;5016517;28;45384;-69
2022/06/26 00:20:45;;;;;;;;;2.00;2.00;;;;;17.80;63.08;100853.06;5016452;28;45472;-69
2022/06/26 00:23:10;;;;;;;;;2.00;2.00;;;;;17.73;62.64;100830.66;5034434;28;45546;-69
2022/06/26 00:25:36;;;;;;;;;3.00;1.67;;;;;17.96;62.42;100868.16;5036130;28;46415;-69
2022/06/26 00:28:01;;;;;;;;;2.00;2.00;;;;;17.90;62.75;100852.78;5036191;28;45501;-68
2022/06/26 00:30:27;;;;;;;;;2.00;2.00;;;;;17.65;62.92;100820.00;5038982;28;45750;-69
2022/06/26 00:32:52;;;;;;;;;2.33;2.33;;;;;17.99;62.55;100873.16;5039887;28;45522;-68
2022/06/26 00:35:17;;;;;;;;;2.00;2.00;;;;;17.92;62.90;100856.94;5039123;28;46625;-68
2022/06/26 00:37:43;;;;;;;;;2.00;2.00;;;;;17.66;62.75;100813.59;5038059;28;45298;-69
2022/06/26 00:40:09;;;;;;;;;6.67;2.00;;;;;17.86;63.04;100852.34;5039536;28;45626;-70
2022/06/26 00:42:35;;;;;;;;;2.00;2.00;;;;;17.72;63.31;100839.75;5039156;28;45484;-69
2022/06/26 00:45:00;;;;;;;;;0.67;0.67;;;;;17.10;63.48;100754.16;5018848;28;46339;-69
2022/06/26 00:47:26;;;;;;;;;2.00;2.00;;;;;17.36;63.26;100804.72;5019290;28;45369;-70
2022/06/26 00:49:51;;;;;;;;;1.67;1.67;;;;;17.70;63.34;100862.47;5024881;28;45471;-70
2022/06/26 00:52:18;;;;;;;;;2.00;1.00;;;;;17.67;63.65;100869.03;5030835;28;45444;-69
2022/06/26 00:54:43;;;;;;;;;1.00;1.00;;;;;17.68;63.45;100886.03;5030985;28;47100;-70
2022/06/26 00:57:09;;;;;;;;;2.33;2.33;;;;;17.24;63.51;100815.13;5039308;28;45482;-69
2022/06/26 00:59:36;;;;;;;;;5.00;1.00;;;;;17.62;63.61;100874.97;5039343;28;45280;-68
2022/06/26 01:02:01;;;;;;;;;2.00;2.00;;;;;17.58;63.63;100876.34;5039156;28;45399;-68
2022/06/26 01:04:27;;;;;;;;;3.00;3.00;;;;;15.63;63.31;100566.16;5037643;28;46472;-68
2022/06/26 01:06:54;;;;;;;;;2.00;2.00;;;;;17.54;63.61;100868.84;5040984;28;45293;-68
2022/06/26 01:09:19;;;;;;;;;1.00;0.00;;;;;17.27;63.64;100830.03;5042239;28;45285;-72
2022/06/26 01:11:45;;;;;;;;;0.33;0.33;;;;;17.56;63.43;100873.00;5039820;28;45296;-70
2022/06/26 01:14:11;;;;;;;;;2.00;1.33;;;;;17.61;63.32;100883.19;5038899;28;45381;-69
2022/06/26 01:16:39;;;;;;;;;3.33;3.00;;;;;17.42;63.24;100851.50;5020687;28;45431;-69
2022/06/26 01:19:06;;;;;;;;;2.00;2.00;;;;;17.58;63.11;100880.88;5018863;28;45296;-69
2022/06/26 01:21:33;;;;;;;;;2.00;2.00;;;;;17.63;63.37;100890.09;5019103;28;45467;-70
2022/06/26 01:23:59;;;;;;;;;1.67;1.67;;;;;17.03;63.02;100790.84;5018625;28;46399;-69
2022/06/26 01:26:25;;;;;;;;;1.67;1.00;;;;;17.03;63.02;100794.38;5018892;28;45362;-69
2022/06/26 01:28:50;;;;;;;;;3.00;1.00;;;;;17.64;63.03;100896.28;5018966;28;45174;-70
2022/06/26 01:31:17;;;;;;;;;3.00;1.33;;;;;17.67;62.89;100900.47;5019055;28;45364;-69
2022/06/26 01:33:42;;;;;;;;;2.67;2.67;;;;;17.23;62.68;100823.38;5019807;28;46374;-69
2022/06/26 01:36:07;;;;;;;;;3.33;1.00;;;;;17.64;62.76;100898.97;5031588;28;45394;-69
2022/06/26 01:38:33;;;;;;;;;1.33;1.33;;;;;17.41;62.79;100852.53;5037370;28;45701;-69
2022/06/26 01:40:58;;;;;;;;;3.00;3.00;;;;;16.94;62.79;100775.81;5037981;28;45296;-72
2022/06/26 01:43:30;;;;;;;;;3.00;1.67;;;;;17.60;62.88;100900.34;5038222;28;46222;-69
2022/06/26 01:45:57;;;;;;;;;2.00;2.00;;;;;17.71;62.47;100917.91;5038105;28;45444;-69
2022/06/26 01:48:26;;;;;;;;;3.00;2.00;;;;;17.66;62.02;100918.44;5038349;28;45319;-69
2022/06/26 01:50:53;;;;;;;;;2.33;2.00;;;;;17.68;62.46;100920.97;5038561;28;45629;-69
2022/06/26 01:53:19;;;;;;;;;2.00;2.00;;;;;17.58;62.82;100923.91;5038080;28;45696;-69
2022/06/26 01:55:44;;;;;;;;;1.00;1.00;;;;;17.48;62.86;100908.06;5039215;28;45527;-68
2022/06/26 01:58:10;;;;;;;;;2.67;2.00;;;;;17.53;62.80;100919.09;5038392;28;45436;-72
2022/06/26 02:00:40;;;;;;;;;3.67;1.33;;;;;16.86;62.60;100802.78;5032305;28;45506;-70
2022/06/26 02:03:07;;;;;;;;;3.33;3.33;;;;;16.98;62.77;100825.47;5018090;28;45823;-70
2022/06/26 02:05:32;;;;;;;;;3.00;3.00;;;;;17.29;63.04;100898.69;5018190;28;45301;-71
2022/06/26 02:07:58;;;;;;;;;2.00;2.00;;;;;17.43;62.57;100921.22;5018296;28;45187;-69
2022/06/26 02:15:55;;;;;;;;;3.33;2.67;;;;;17.51;62.84;100917.59;5017936;28;45538;-69
2022/06/26 02:18:20;;;;;;;;;2.00;2.00;;;;;17.03;62.71;100823.91;5018009;28;45662;-69
2022/06/26 02:20:46;;;;;;;;;2.00;2.00;;;;;17.56;62.61;100915.19;5018306;28;45308;-68
2022/06/26 02:23:13;;;;;;;;;4.00;1.00;;;;;17.60;62.21;100917.31;5017877;28;46579;-70
2022/06/26 02:25:39;;;;;;;;;3.00;1.33;;;;;17.57;62.07;100911.47;5017841;28;45507;-70
2022/06/26 02:28:05;;;;;;;;;3.00;3.00;;;;;17.60;62.38;100921.84;5018064;28;45380;-69
2022/06/26 02:30:32;;;;;;;;;4.00;2.00;;;;;17.62;62.24;100925.22;5022648;28;45217;-69
2022/06/26 02:32:57;;;;;;;;;1.00;1.00;;;;;17.65;62.44;100930.22;5038361;28;45517;-69
2022/06/26 02:35:23;;;;;;;;;3.00;3.00;;;;;17.68;61.90;100918.28;5037856;28;45360;-71
2022/06/26 02:37:50;;;;;;;;;1.00;1.00;;;;;17.30;61.90;100851.97;5037783;28;45331;-71
2022/06/26 02:40:15;;;;;;;;;1.00;1.00;;;;;17.50;61.96;100873.75;5037810;28;45499;-68
2022/06/26 02:42:41;;;;;;;;;4.00;2.67;;;;;17.71;61.81;100901.78;5037629;28;45694;-69
2022/06/26 02:45:07;;;;;;;;;3.00;2.00;;;;;17.72;61.95;100914.19;5037160;28;45390;-69
2022/06/26 02:47:33;;;;;;;;;3.00;2.00;;;;;17.75;61.79;100919.22;5037500;28;45450;-70
2022/06/26 02:49:58;;;;;;;;;1.00;1.00;;;;;17.72;61.62;100904.28;5037628;28;45336;-69
2022/06/26 02:52:24;;;;;;;;;6.67;3.00;;;;;17.73;61.40;100892.50;5036342;28;46592;-70
2022/06/26 02:54:49;;;;;;;;;2.33;2.00;;;;;17.80;61.61;100906.03;5037161;28;45281;-68
2022/06/26 02:57:14;;;;;;;;;3.67;2.67;;;;;17.34;61.30;100821.03;5037437;28;45261;-69
2022/06/26 02:59:40;;;;;;;;;3.00;3.00;;;;;17.82;61.13;100914.72;5037915;28;45585;-70
2022/06/26 03:02:05;;;;;;;;;4.00;3.00;;;;;17.81;61.25;100916.59;5019156;28;46129;-71
2022/06/26 03:04:31;;;;;;;;;3.00;1.00;;;;;17.83;61.02;100921.81;5017185;28;45408;-69
2022/06/26 03:06:57;;;;;;;;;3.00;3.00;;;;;17.80;61.06;100925.69;5017353;28;45168;-70
2022/06/26 03:09:22;;;;;;;;;2.67;2.00;;;;;17.15;61.20;100818.91;5017613;28;45507;-72
2022/06/26 03:11:48;;;;;;;;;2.33;2.33;;;;;17.83;61.09;100928.03;5017244;28;45298;-73
2022/06/26 03:14:13;;;;;;;;;2.33;2.33;;;;;17.83;60.91;100925.34;5017328;28;45159;-70
2022/06/26 03:16:38;;;;;;;;;2.00;2.00;;;;;17.75;60.82;100909.28;5035290;28;45514;-70
2022/06/26 03:19:04;;;;;;;;;3.00;2.00;;;;;17.87;60.83;100928.47;5037499;28;45249;-69
2022/06/26 03:21:29;;;;;;;;;2.00;2.00;;;;;17.88;60.25;100927.47;5035528;28;52691;-69
2022/06/26 03:24:03;;;;;;;;;3.00;3.00;;;;;17.89;60.34;100923.75;5036925;28;45540;-69
2022/06/26 03:26:30;;;;;;;;;3.00;3.00;;;;;17.89;60.68;100929.13;5037143;28;45220;-68
2022/06/26 03:28:56;;;;;;;;;2.00;2.00;;;;;17.90;60.46;100928.94;5037082;28;45273;-72
2022/06/26 03:31:21;;;;;;;;;4.00;4.00;;;;;17.84;60.34;100902.78;5040717;28;48341;-69
2022/06/26 03:33:47;;;;;;;;;3.00;3.00;;;;;17.55;60.17;100860.59;5016978;28;45286;-70
2022/06/26 03:36:12;;;;;;;;;3.00;2.00;;;;;17.94;60.10;100937.47;5017036;28;45293;-69
2022/06/26 03:38:38;;;;;;;;;4.00;4.00;;;;;17.91;59.88;100929.78;5017086;28;46268;-71
2022/06/26 03:41:03;;;;;;;;;4.00;2.33;;;;;17.91;60.01;100938.66;5016829;28;46359;-71
2022/06/26 03:43:29;;;;;;;;;3.33;2.67;;;;;17.70;59.79;100897.44;5015363;28;45602;-68
2022/06/26 03:45:54;;;;;;;;;3.00;2.67;;;;;17.36;59.87;100830.75;5015314;28;45253;-69
2022/06/26 03:48:20;;;;;;;;;3.33;3.33;;;;;17.43;59.43;100834.38;5032202;28;45451;-69
2022/06/26 03:50:45;;;;;;;;;3.00;2.00;;;;;17.82;59.75;100902.16;5016600;28;45626;-70
2022/06/26 03:53:11;;;;;;;;;3.00;2.00;;;;;18.01;59.64;100945.59;5016794;28;45526;-69
2022/06/26 03:55:37;;;;;;;;;5.67;3.33;;;;;17.36;59.24;100828.06;5017418;28;45541;-71
2022/06/26 03:58:03;;;;;;;;;1.67;1.33;;;;;17.90;59.47;100931.63;5016808;28;45278;-70
2022/06/26 04:00:28;;;;;;;;;1.33;1.33;;;;;17.94;58.75;100950.91;5020194;28;45767;-69
2022/06/26 04:02:54;;;;;;;;;2.00;2.00;;;;;17.51;59.07;100879.97;5036379;28;45252;-70
2022/06/26 04:05:19;;;;;;;;;3.00;2.67;;;;;17.91;59.04;100949.44;5038945;28;45171;-71
2022/06/26 04:07:45;;;;;;;;;4.00;2.67;;;;;17.97;58.70;100958.59;5040284;28;45373;-68
2022/06/26 04:10:11;;;;;;;;;3.00;1.67;;;;;17.82;59.03;100936.25;5039875;28;45575;-71
2022/06/26 04:12:36;;;;;;;;;3.00;2.00;;;;;18.00;58.73;100974.38;5038457;28;45417;-70
2022/06/26 04:15:02;;;;;;;;;3.33;2.33;;;;;17.99;58.25;100964.63;5040146;28;45800;-69
2022/06/26 04:17:27;;;;;;;;;3.00;3.00;;;;;17.97;58.92;100987.34;5040163;28;45313;-70
2022/06/26 04:19:53;;;;;;;;;1.33;1.00;;;;;17.94;59.01;100964.34;5039618;28;45433;-70
2022/06/26 04:22:19;;;;;;;;;5.50;3.00;;;;;17.96;58.79;100980.31;5055246;28;45533;-70
2022/06/26 04:24:44;;;;;;;;;2.00;2.00;;;;;17.71;58.27;100924.13;5039910;28;45447;-70
2022/06/26 04:27:10;;;;;;;;;3.00;2.33;;;;;17.89;58.09;100970.31;5039718;28;45380;-69
2022/06/26 04:29:35;;;;;;;;;2.33;2.00;;;;;18.00;58.49;100987.81;5039490;28;45715;-70
2022/06/26 04:32:01;;;;;;;;;1.33;1.33;;;;;17.34;58.70;100880.16;5022433;28;45253;-70
2022/06/26 04:34:26;;;;;;;;;4.33;3.00;;;;;17.94;58.34;100978.66;5019711;28;45502;-69
2022/06/26 04:36:51;;;;;;;;;3.00;2.00;;;;;18.08;58.38;101003.03;5019940;28;45595;-70
2022/06/26 04:39:17;;;;;;;;;3.33;3.33;;;;;18.07;58.18;100982.53;5019269;28;45524;-68
2022/06/26 04:41:43;;;;;;;;;3.33;2.67;;;;;18.05;57.51;100979.22;5019354;28;45341;-70
2022/06/26 04:44:11;;;;;;;;;4.00;3.00;;;;;18.01;57.88;100972.50;5019680;28;45467;-70
2022/06/26 04:46:39;;;;;;;;;3.67;3.00;;;;;18.04;57.68;100977.53;5019485;28;45222;-68
2022/06/26 04:49:05;;;;;;;;;6.00;6.00;;;;;18.17;56.89;100997.38;5034373;28;45976;-70
2022/06/26 04:51:30;;;;;;;;;2.00;2.00;;;;;17.98;56.76;100964.81;5034461;28;45462;-72
2022/06/26 04:53:56;;;;;;;;;2.00;2.00;;;;;17.96;56.21;100964.16;5019346;28;45559;-71
2022/06/26 04:56:21;;;;;;;;;3.67;1.67;;;;;18.21;56.38;100995.13;5019566;28;45605;-70
2022/06/26 04:58:47;;;;;;;;;5.00;5.00;;;;;18.32;56.18;101008.13;5018903;28;45681;-68
2022/06/26 05:01:13;;;;;;;;;3.00;1.00;;;;;18.35;56.09;101012.28;5019958;28;45613;-69
2022/06/26 05:03:38;;;;;;;;;4.67;2.33;;;;;18.02;56.08;100941.88;5018848;28;45346;-70
2022/06/26 05:06:04;;;;;;;;;2.33;2.33;;;;;18.50;55.26;101005.84;5019333;28;45206;-70
2022/06/26 05:08:29;;;;;;;;;2.00;2.00;;;;;18.55;54.97;101008.81;5017600;28;47709;-69
2022/06/26 05:14:05;;;;;;;;;5.33;5.00;;;;;18.53;54.49;100991.19;5018620;28;45813;-69
2022/06/26 05:16:31;;;;;;;;;1.67;1.67;;;;;18.54;54.50;100990.97;5018244;28;45396;-70
2022/06/26 05:18:56;;;;;;;;;1.00;1.00;;;;;18.41;54.48;100963.91;5018840;28;45676;-69
2022/06/26 05:21:22;;;;;;;;;3.00;2.00;;;;;18.75;54.34;101024.38;5017763;28;45734;-69
2022/06/26 05:23:47;;;;;;;;;3.33;2.33;;;;;18.58;54.01;100987.91;5017868;28;45350;-70
2022/06/26 05:26:12;;;;;;;;;2.33;2.33;;;;;18.69;54.45;101019.78;5018967;28;45483;-69
2022/06/26 05:28:38;;;;;;;;;2.00;2.00;;;;;18.70;53.90;101010.66;5017404;28;46735;-68
2022/06/26 05:31:04;;;;;;;;;3.67;2.33;;;;;18.60;53.88;101008.22;5025636;28;45468;-68
2022/06/26 05:33:29;;;;;;;;;6.67;2.00;;;;;18.71;53.86;101023.09;5020777;28;45344;-70
2022/06/26 05:35:54;;;;;;;;;2.67;2.67;;;;;18.27;54.04;100940.56;5019068;28;45557;-71
2022/06/26 05:38:20;;;;;;;;;5.33;2.00;;;;;18.70;54.14;101024.97;5018575;28;45640;-71
2022/06/26 05:40:45;;;;;;;;;4.00;4.00;;;;;18.69;54.40;101014.38;5017065;28;45506;-70
2022/06/26 05:43:10;;;;;;;;;4.00;1.00;;;;;18.09;53.98;100911.38;5018822;28;45503;-69
2022/06/26 05:45:36;;;;;;;;;2.33;2.33;;;;;18.42;53.81;100962.91;5018531;28;45427;-70
2022/06/26 05:48:01;;;;;;;;;3.67;2.00;;;;;18.84;54.21;101034.88;5016782;28;48532;-71
2022/06/26 05:50:26;;;;;;;;;2.67;1.67;;;;;18.76;52.99;101026.06;5018216;28;45542;-70
2022/06/26 05:52:52;;;;;;;;;3.33;3.00;;;;;18.87;53.50;101028.25;5018345;28;45480;-69
2022/06/26 05:55:17;;;;;;;;;4.00;3.00;;;;;18.91;53.00;101021.47;5019474;28;45407;-69
2022/06/26 05:57:43;;;;;;;;;3.00;2.00;;;;;18.67;53.33;100986.81;5016528;28;47553;-69
2022/06/26 06:00:09;;;;;;;;;2.00;2.00;;;;;18.97;53.17;101023.38;5018268;28;45345;-69
2022/06/26 06:02:35;;;;;;;;;2.67;2.00;;;;;19.02;53.41;101031.75;5018460;28;45392;-69
2022/06/26 06:05:00;;;;;;;;;3.00;2.00;;;;;19.06;52.50;101038.41;5017064;28;45435;-68
2022/06/26 06:07:26;;;;;;;;;1.00;1.00;;;;;18.06;52.47;100862.50;5017932;28;45568;-70
2022/06/26 06:09:51;;;;;;;;;3.00;2.00;;;;;18.78;52.78;100964.75;5018288;28;45270;-70
2022/06/26 06:12:16;;;;;;;;;2.00;1.00;;;;;19.26;52.22;101038.59;5018135;28;45329;-70
2022/06/26 06:14:42;;;;;;;;;1.00;1.00;;;;;19.21;51.80;101032.94;5023589;28;45474;-70
2022/06/26 06:19:51;;;;;;;;;3.00;3.00;;;;;18.77;51.78;100933.44;5037773;28;45469;-69
2022/06/26 06:22:16;;;;;;;;;2.33;2.33;;;;;19.44;51.87;101036.28;5037990;28;45648;-69
2022/06/26 06:24:42;;;;;;;;;2.00;2.00;;;;;19.41;51.67;101031.25;5036851;28;45487;-68
2022/06/26 06:27:07;;;;;;;;;1.67;1.67;;;;;19.47;51.58;101029.66;5037415;28;45314;-69
2022/06/26 06:29:32;;;;;;;;;4.33;3.00;;;;;19.00;50.39;100955.63;5037635;28;45226;-71
2022/06/26 06:31:58;;;;;;;;;2.00;2.00;;;;;19.66;50.84;101057.84;5033743;28;45439;-69
2022/06/26 06:34:23;;;;;;;;;3.00;1.00;;;;;19.69;50.27;101055.56;5036558;28;45349;-70
2022/06/26 06:36:48;;;;;;;;;1.67;1.00;;;;;19.59;50.12;101025.41;5037667;28;45251;-69
2022/06/26 06:39:14;;;;;;;;;3.33;2.33;;;;;19.82;50.42;101051.28;5036230;28;47785;-69
2022/06/26 06:41:39;;;;;;;;;1.00;1.00;;;;;19.86;49.49;101050.72;5036572;28;45263;-69
2022/06/26 06:44:05;;;;;;;;;0.50;0.50;;;;;20.01;49.49;101064.91;5036704;28;45290;-70
2022/06/26 06:46:30;;;;;;;;;3.00;3.00;;;;;20.18;49.20;101065.44;5037488;28;45697;-70
2022/06/26 06:48:55;;;;;;;;;3.00;2.00;;;;;20.31;47.96;101068.22;5052558;28;45339;-70
2022/06/26 06:51:21;;;;;;;;;2.00;2.00;;;;;20.40;47.55;101062.63;5053187;28;45475;-68
2022/06/26 06:53:46;;;;;;;;;3.00;2.00;;;;;19.54;47.40;100903.81;5053271;28;45398;-68
2022/06/26 06:56:11;;;;;;;;;3.00;1.67;;;;;20.72;46.25;101061.97;5037322;28;45649;-71
2022/06/26 06:58:37;;;;;;;;;2.00;2.00;;;;;20.80;45.86;101064.50;5037451;28;45455;-71
2022/06/26 07:01:02;;;;;;;;;1.00;1.00;;;;;20.65;45.74;101012.50;5026735;28;45420;-71
2022/06/26 07:03:28;;;;;;;;;2.25;1.00;;;;;20.93;45.98;101042.09;5017462;28;45439;-69
2022/06/26 07:05:53;;;;;;;;;2.00;2.00;;;;;21.01;45.42;101019.41;5017044;28;45896;-69
2022/06/26 07:08:18;;;;;;;;;0.33;0.33;;;;;21.36;44.34;101075.03;5032494;28;46153;-70
2022/06/26 07:10:44;;;;;;;;;1.00;1.00;;;;;21.08;44.81;100994.09;5017252;28;45615;-69
2022/06/26 07:13:10;;;;;;;;;0.33;0.33;;;;;21.72;43.46;101073.81;5017437;28;45543;-70
2022/06/26 07:15:36;;;;;;;;;4.00;2.00;;;;;21.91;42.90;101086.50;5027296;28;46366;-70
2022/06/26 07:18:02;;;;;;;;;1.00;1.00;;;;;21.98;41.51;101100.00;5036941;28;45583;-70
2022/06/26 07:20:28;;;;;;;;;3.00;1.33;;;;;21.94;41.57;101096.91;5037030;28;45341;-70
2022/06/26 07:22:53;;;;;;;;;3.00;3.00;;;;;21.65;41.82;101010.75;5035439;28;45424;-69
2022/06/26 07:25:19;;;;;;;;;1.00;1.00;;;;;22.18;41.44;101076.47;5036889;28;45743;-71
2022/06/26 07:27:45;;;;;;;;;2.00;2.00;;;;;22.51;41.00;101117.03;5030856;28;45450;-70
2022/06/26 07:30:11;;;;;;;;;3.00;0.50;;;;;22.65;38.97;101107.81;5016073;28;45394;-69
2022/06/26 07:32:36;;;;;;;;;1.33;1.33;;;;;22.36;38.74;101036.00;5015687;28;45259;-72
2022/06/26 07:35:02;;;;;;;;;1.00;1.00;;;;;22.88;38.88;101093.75;5023612;28;45562;-71
2022/06/26 07:37:28;;;;;;;;;0.00;0.00;;;;;23.01;38.60;101065.72;5015612;28;45503;-69
2022/06/26 07:39:53;;;;;;;;;3.00;2.00;;;;;23.53;38.87;101118.81;5017347;28;45859;-68
2022/06/26 07:42:18;;;;;;;;;0.00;0.00;;;;;23.68;37.09;101102.22;5029581;28;45441;-69
2022/06/26 07:44:44;;;;;;;;;3.00;1.67;;;;;23.78;37.00;101105.25;5032209;28;46164;-70
2022/06/26 07:47:09;;;;;;;;;2.75;1.50;;;;;23.58;37.19;101063.88;5024900;28;45457;-69
2022/06/26 07:49:35;;;;;;;;;1.00;1.00;;;;;23.98;36.68;101107.81;5035697;28;45516;-68
2022/06/26 07:52:00;;;;;;;;;1.00;1.00;;;;;23.88;36.87;101086.59;5020430;28;45468;-69
2022/06/26 07:54:25;;;;;;;;;2.00;2.00;;;;;24.01;37.17;101110.06;5020212;28;46442;-69
2022/06/26 07:56:51;;;;;;;;;2.00;2.00;;;;;24.15;37.24;101127.06;5019990;28;45512;-71
2022/06/26 07:59:16;;;;;;;;;0.67;0.67;;;;;24.23;36.86;101115.94;5018854;28;45742;-69
2022/06/26 08:01:42;;;;;;;;;1.00;1.00;;;;;24.22;35.96;101108.81;5030568;28;45458;-71
2022/06/26 08:04:09;;;;;;;;;1.00;1.00;;;;;24.27;35.29;101117.97;5020042;28;45262;-69
2022/06/26 08:06:35;;;;;;;;;1.50;1.50;;;;;23.62;35.67;101005.38;5029139;28;45226;-71
2022/06/26 08:09:01;;;;;;;;;2.00;2.00;;;;;24.18;35.25;101103.00;5028362;28;47045;-70
2022/06/26 08:11:26;;;;;;;;;2.25;1.25;;;;;24.08;36.02;101077.44;5024423;28;45484;-71
2022/06/26 08:13:53;;;;;;;;;1.67;1.00;;;;;24.34;35.43;101107.06;5019597;28;46171;-69
2022/06/26 08:16:19;;;;;;;;;2.00;1.00;;;;;24.23;35.33;101080.63;5031385;28;45443;-70
2022/06/26 08:18:44;;;;;;;;;2.33;1.33;;;;;24.46;35.45;101105.25;5023109;28;45316;-69
2022/06/26 08:23:54;;;;;;;;;2.00;1.00;;;;;24.69;33.68;101107.28;5037021;28;46335;-69
2022/06/26 08:26:19;;;;;;;;;3.00;3.00;;;;;24.84;34.06;101096.00;5018411;28;45445;-69
2022/06/26 08:28:45;;;;;;;;;3.33;3.33;;;;;25.03;34.55;101102.25;5018230;28;45509;-72
2022/06/26 08:31:10;;;;;;;;;1.00;1.00;;;;;25.08;34.19;101108.66;5020952;28;45180;-69
2022/06/26 08:33:36;;;;;;;;;1.25;0.75;;;;;25.07;33.69;101104.28;5019552;28;46247;-69
2022/06/26 08:36:01;;;;;;;;;3.00;3.00;;;;;25.14;33.99;101102.28;5019347;28;45226;-68
2022/06/26 08:38:26;;;;;;;;;1.00;1.00;;;;;25.13;33.61;101087.03;5019700;28;46089;-69
2022/06/26 08:40:53;;;;;;;;;0.25;0.25;;;;;24.92;33.26;101037.72;5035543;28;45260;-69
2022/06/26 08:43:21;;;;;;;;;2.25;2.25;;;;;25.36;33.89;101091.72;5019778;28;45483;-69
2022/06/26 08:45:50;;;;;;;;;3.00;3.00;;;;;24.86;32.24;101001.41;5018768;28;45524;-69
2022/06/26 08:48:18;;;;;;;;;3.67;1.00;;;;;25.65;32.82;101102.78;5019425;28;45347;-70
2022/06/26 08:50:44;;;;;;;;;4.33;1.33;;;;;26.03;31.61;101102.38;5051693;28;45569;-71
2022/06/26 08:53:10;;;;;;;;;0.00;0.00;;;;;26.24;31.21;101095.47;5028357;28;47395;-70
2022/06/26 08:55:36;;;;;;;;;0.00;0.00;;;;;26.46;30.94;101084.81;4984246;28;47972;-70
2022/06/26 08:58:02;;;;;;;;;1.75;1.75;;;;;26.79;31.03;101087.66;5029572;28;46557;-69
2022/06/26 09:00:27;;;;;;;;;0.00;0.00;;;;;26.98;30.06;101070.00;5029688;28;45471;-71
2022/06/26 09:02:53;;;;;;;;;2.67;1.00;;;;;27.48;29.77;101082.94;5021373;28;45307;-69
2022/06/26 09:05:18;;;;;;;;;1.50;1.50;;;;;27.26;29.84;100994.66;5035893;28;45610;-70
2022/06/26 09:07:45;;;;;;;;;1.00;1.00;;;;;27.97;28.63;101066.78;5054992;28;45611;-69
2022/06/26 09:10:11;;;;;;;;;1.67;1.33;;;;;28.16;29.18;101076.34;5035216;28;45516;-68
2022/06/26 09:12:36;;;;;;;;;3.25;1.75;;;;;28.30;29.06;101057.72;5036485;28;45690;-71
2022/06/26 09:15:03;;;;;;;;;2.25;2.25;;;;;28.35;28.37;101035.06;5032208;28;45378;-69
2022/06/26 09:17:28;;;;;;;;;2.00;2.00;;;;;28.66;27.36;101036.25;5016637;28;45484;-68
2022/06/26 09:19:55;;;;;;;;;1.00;1.00;;;;;28.78;26.79;101056.91;5016711;28;45658;-70
2022/06/26 09:22:22;;;;;;;;;1.00;1.00;;;;;28.64;27.78;101066.63;5033064;28;47501;-70
2022/06/26 09:24:57;;;;;;;;;2.67;2.00;;;;;28.30;27.46;101059.63;5017296;28;45338;-71
2022/06/26 09:27:22;;;;;;;;;2.00;0.00;;;;;27.99;27.98;101061.06;5050442;28;45417;-71
2022/06/26 09:29:54;;;;;;;;;1.00;1.00;;;;;28.06;28.13;101068.03;5017604;28;45579;-69
2022/06/26 09:32:21;;;;;;;;;3.00;2.00;;;;;27.85;27.80;101044.22;5033556;28;48350;-70
2022/06/26 09:34:49;;;;;;;;;1.00;1.00;;;;;27.93;27.62;100988.28;5018765;28;45465;-70
2022/06/26 09:37:16;;;;;;;;;2.00;2.00;;;;;29.16;26.60;101063.34;5002227;27;45538;-70
2022/06/26 09:39:42;;;;;;;;;2.00;2.00;;;;;29.51;25.63;101065.59;5019022;28;45301;-70
2022/06/26 09:42:19;;;;;;;;;1.00;1.00;;;;;30.09;25.58;101071.22;5032808;28;46030;-71
2022/06/26 09:44:52;;;;;;;;;0.67;0.67;;;;;30.17;24.58;100981.03;5033252;28;45342;-70
2022/06/26 09:47:25;;;;;;;;;1.75;1.50;;;;;30.95;25.04;101057.03;5017692;28;45341;-69
2022/06/26 09:49:52;;;;;;;;;2.50;2.50;;;;;30.85;24.91;101066.91;5032839;28;45559;-71
2022/06/26 09:52:19;;;;;;;;;2.00;2.00;;;;;30.70;24.76;101058.63;5036123;28;46654;-68
2022/06/26 09:54:46;;;;;;;;;1.50;1.00;;;;;30.26;23.51;101049.94;5036922;28;45586;-71
2022/06/26 09:57:12;;;;;;;;;2.67;2.67;;;;;29.64;24.30;101036.94;5031095;28;45498;-70
2022/06/26 09:59:40;;;;;;;;;2.00;2.00;;;;;29.51;24.86;101059.28;5038208;28;45444;-71
2022/06/26 10:07:51;;;;;;;;;3.00;3.00;;;;;28.94;25.77;101059.84;5037701;28;45494;-69
2022/06/26 10:10:21;;;;;;;;;1.00;1.00;;;;;28.47;25.34;101022.09;5036571;28;45363;-72
2022/06/26 10:12:52;;;;;;;;;1.00;0.00;;;;;28.22;25.82;101029.94;5037372;28;45958;-71
2022/06/26 10:15:19;;;;;;;;;1.00;1.00;;;;;28.14;25.87;101066.75;5020430;28;45218;-70
2022/06/26 10:18:06;;;;;;;;;2.67;1.67;;;;;27.75;26.70;101057.72;5017774;28;45301;-70
2022/06/26 10:20:32;;;;;;;;;1.00;1.00;;;;;27.46;27.53;101027.75;5033373;28;45308;-70
2022/06/26 10:22:58;;;;;;;;;1.67;1.67;;;;;26.95;28.34;100966.81;5021320;28;45726;-71
2022/06/26 10:25:28;;;;;;;;;3.00;3.00;;;;;27.26;27.49;101066.47;5037398;28;45175;-76
2022/06/26 10:27:55;;;;;;;;;2.00;2.00;;;;;26.98;28.01;101041.91;5038017;28;45190;-71
2022/06/26 10:30:23;;;;;;;;;1.33;1.33;;;;;26.90;28.13;101056.78;5036695;28;45504;-70
2022/06/26 10:33:11;;;;;;;;;3.67;3.67;;;;;26.68;28.65;101053.91;5037495;28;46428;-73
2022/06/26 10:35:42;;;;;;;;;4.00;1.67;;;;;26.46;28.99;101060.25;5036239;28;45859;-70
2022/06/26 10:38:23;;;;;;;;;2.67;2.67;;;;;26.20;28.43;101046.03;5036303;28;45330;-70
2022/06/26 10:43:52;;;;;;;;;2.00;2.00;;;;;25.55;29.13;101005.34;5037258;28;45889;-70
2022/06/26 10:46:21;;;;;;;;;12.33;12.33;;;;;25.61;28.96;101037.06;5035625;28;45337;-74
2022/06/26 10:48:55;;;;;;;;;2.33;2.00;;;;;25.76;29.28;101067.41;5036045;28;45328;-71
2022/06/26 10:51:27;;;;;;;;;1.00;1.00;;;;;25.65;29.84;101065.50;5037841;28;45603;-73
2022/06/26 10:53:52;;;;;;;;;2.00;2.00;;;;;22.98;30.13;100678.41;5037308;28;45890;-70
2022/06/26 10:56:18;;;;;;;;;2.00;2.00;;;;;25.18;30.69;101070.00;5037230;28;45521;-72
2022/06/26 10:58:45;;;;;;;;;6.00;1.33;;;;;25.12;31.18;101063.59;5037411;28;45438;-72
2022/06/26 11:01:12;;;;;;;;;4.33;3.00;;;;;24.98;31.32;101050.41;5038294;28;45216;-72
2022/06/26 11:03:40;;;;;;;;;4.00;2.67;;;;;24.33;31.73;100952.38;5037993;28;45638;-71
2022/06/26 11:06:08;;;;;;;;;2.33;1.00;;;;;24.97;31.70;101057.72;5036646;28;45531;-70
2022/06/26 11:08:42;;;;;;;;;3.33;3.33;;;;;24.72;32.15;101021.69;5037082;28;45382;-71
2022/06/26 11:11:09;;;;;;;;;1.33;1.33;;;;;24.73;33.00;101051.38;5035624;28;45351;-70
2022/06/26 11:13:54;;;;;;;;;3.00;3.00;;;;;24.68;33.82;101047.69;5034993;28;45701;-68
2022/06/26 11:22:28;;;;;;;;;4.67;3.33;;;;;23.93;34.69;100978.13;5014642;28;45357;-69
2022/06/26 11:24:55;;;;;;;;;3.00;2.00;;;;;24.03;34.81;100990.34;5047862;28;46866;-70
2022/06/26 11:27:22;;;;;;;;;4.00;4.00;;;;;24.27;34.25;101035.63;5015602;28;45341;-72
2022/06/26 11:29:48;;;;;;;;;4.00;4.00;;;;;24.17;34.40;101038.03;5016903;28;45336;-71
2022/06/26 11:32:14;;;;;;;;;4.67;4.67;;;;;24.05;34.26;101037.13;5017145;28;45471;-70
2022/06/26 11:34:49;;;;;;;;;2.33;2.33;;;;;23.78;35.60;101029.25;5016929;28;46266;-70
2022/06/26 11:37:15;;;;;;;;;3.00;3.00;;;;;23.64;34.59;101019.59;5016687;28;45223;-70
2022/06/26 11:39:42;;;;;;;;;3.33;2.33;;;;;23.84;34.52;101050.09;5016964;28;45234;-71
2022/06/26 11:42:23;;;;;;;;;3.00;3.00;;;;;23.85;34.61;101046.31;5017043;28;45532;-70
2022/06/26 11:44:50;;;;;;;;;2.00;2.00;;;;;23.19;33.62;100946.47;5016357;28;45493;-70
2022/06/26 11:47:16;;;;;;;;;2.33;1.33;;;;;23.42;34.09;100964.00;5032353;28;45424;-72
2022/06/26 11:49:41;;;;;;;;;2.00;2.00;;;;;23.96;34.21;101029.25;5036604;28;45398;-70